createdAt,value
2019-01-12T00:01:41.624Z,4.34
2019-01-12T00:07:36.606Z,5.47
2019-01-12T00:13:31.597Z,5.81
2019-01-12T00:19:26.603Z,4.45
2019-01-12T00:25:21.613Z,6.17
2019-01-12T00:31:16.645Z,4.66
2019-01-12T00:37:11.642Z,4.81
2019-01-12T00:43:06.635Z,4.28
2019-01-12T00:49:01.663Z,4.54
2019-01-12T00:54:56.620Z,5.11
2019-01-12T01:00:51.615Z,7.32
2019-01-12T01:06:46.619Z,5.22
2019-01-12T01:12:41.648Z,4.58
2019-01-12T01:18:36.625Z,7.49
2019-01-12T01:24:31.636Z,6.83
2019-01-12T01:30:26.651Z,10.18
2019-01-12T01:36:21.662Z,5.6
2019-01-12T01:42:16.638Z,4.74
2019-01-12T01:48:11.645Z,8.95
2019-01-12T01:54:06.622Z,7.99
2019-01-12T02:00:01.719Z,6.62
2019-01-12T02:05:56.652Z,5.54
2019-01-12T02:11:51.690Z,8.57
2019-01-12T02:17:46.669Z,6.34
2019-01-12T02:23:41.708Z,11.75
2019-01-12T02:29:36.700Z,7.04
2019-01-12T02:35:31.659Z,6.8
2019-01-12T02:41:26.657Z,6.76
2019-01-12T02:47:21.698Z,12.13
2019-01-12T02:53:16.674Z,7.39
2019-01-12T02:59:11.678Z,6.86
2019-01-12T03:05:06.661Z,7.94
2019-01-12T03:11:01.724Z,6.46
2019-01-12T03:16:56.761Z,10.32
2019-01-12T03:22:51.691Z,6.54
2019-01-12T03:28:46.704Z,7.53
2019-01-12T03:34:41.696Z,4.23
2019-01-12T03:40:36.704Z,3.86
2019-01-12T03:46:31.690Z,5.69
2019-01-12T03:52:26.701Z,4.43
2019-01-12T03:58:21.696Z,4.25
2019-01-12T04:04:16.706Z,5.66
2019-01-12T04:10:11.706Z,6.71
2019-01-12T04:16:06.696Z,6.34
2019-01-12T04:22:01.678Z,4.3
2019-01-12T04:27:56.724Z,5.73
2019-01-12T04:33:51.722Z,5.76
2019-01-12T04:39:46.718Z,5.53
2019-01-12T04:45:41.755Z,4.22
2019-01-12T04:51:36.695Z,4.27
2019-01-12T04:57:31.719Z,5.81
2019-01-12T05:03:26.729Z,4.56
2019-01-12T05:09:21.720Z,3.64
2019-01-12T05:15:16.779Z,4.23
2019-01-12T05:21:11.746Z,3.73
2019-01-12T05:27:06.752Z,3.9
2019-01-12T05:33:01.708Z,4.44
2019-01-12T05:38:56.744Z,5.27
2019-01-12T05:44:51.723Z,6.28
2019-01-12T05:50:46.734Z,6.73
2019-01-12T05:56:41.761Z,6.41
2019-01-12T06:02:36.724Z,8.2
2019-01-12T06:08:31.752Z,11.17
2019-01-12T06:14:26.783Z,7.56
2019-01-12T06:20:21.739Z,8.33
2019-01-12T06:26:16.730Z,6.62
2019-01-12T06:32:11.743Z,11.82
2019-01-12T06:38:06.740Z,10.03
2019-01-12T06:44:01.757Z,7.2
2019-01-12T06:49:56.771Z,8.01
2019-01-12T06:55:51.762Z,10.32
2019-01-12T07:01:46.740Z,6.05
2019-01-12T07:07:41.788Z,8.58
2019-01-12T07:13:36.764Z,4.99
2019-01-12T07:19:31.777Z,5.09
2019-01-12T07:25:26.737Z,13.13
2019-01-12T07:31:21.779Z,6.37
2019-01-12T07:37:16.766Z,7.89
2019-01-12T07:43:11.759Z,7.82
2019-01-12T07:49:06.755Z,10.08
2019-01-12T07:55:01.765Z,10.99
2019-01-12T08:00:56.767Z,15.18
2019-01-12T08:06:51.794Z,20.3
2019-01-12T08:12:46.805Z,19.8
2019-01-12T08:18:41.794Z,20.49
2019-01-12T08:24:36.803Z,18.15
2019-01-12T08:30:31.802Z,18.15
2019-01-12T08:36:26.769Z,22.07
2019-01-12T08:42:21.767Z,24.47
2019-01-12T08:48:16.781Z,36.82
2019-01-12T08:54:11.787Z,36.93
2019-01-12T09:00:06.791Z,26.73
2019-01-12T09:06:01.789Z,34.6
2019-01-12T09:11:56.783Z,32.94
2019-01-12T09:17:51.800Z,46.49
2019-01-12T09:23:46.795Z,41.87
2019-01-12T09:29:41.799Z,39.6
2019-01-12T09:35:36.819Z,44.18
2019-01-12T09:41:31.826Z,42.03
2019-01-12T09:47:26.809Z,34.8
2019-01-12T09:53:21.822Z,45.54
2019-01-12T09:59:16.840Z,33.22
2019-01-12T10:05:11.807Z,38.38
2019-01-12T10:11:06.863Z,34.32
2019-01-12T10:17:01.872Z,29.8
2019-01-12T10:22:56.821Z,36.07
2019-01-12T10:28:51.843Z,31.38
2019-01-12T10:34:46.824Z,38.7
2019-01-12T10:40:41.835Z,38.04
2019-01-12T10:46:36.851Z,32.9
2019-01-12T10:52:31.833Z,23.39
2019-01-12T10:58:26.837Z,28.76
2019-01-12T11:04:21.900Z,27.69
2019-01-12T11:10:16.829Z,26.01
2019-01-12T11:16:11.849Z,27.71
2019-01-12T11:22:06.852Z,27.13
2019-01-12T11:28:01.855Z,27.25
2019-01-12T11:33:56.864Z,26.56
2019-01-12T11:39:51.872Z,24.34
2019-01-12T11:45:46.885Z,28.17
2019-01-12T11:51:41.928Z,21.76
2019-01-12T11:57:36.900Z,15.62
2019-01-12T12:03:31.878Z,22.82
2019-01-12T12:09:26.888Z,19.71
2019-01-12T12:15:21.867Z,16.61
2019-01-12T12:21:16.873Z,16.87
2019-01-12T12:27:11.956Z,15.21
2019-01-12T12:33:06.972Z,18.46
2019-01-12T12:39:01.894Z,13.87
2019-01-12T12:44:56.889Z,15.62
2019-01-12T12:50:51.889Z,12.28
2019-01-12T12:56:46.904Z,14.99
2019-01-12T13:02:41.919Z,18.92
2019-01-12T13:08:36.883Z,17.66
2019-01-12T13:14:31.919Z,17.96
2019-01-12T13:20:26.933Z,16.44
2019-01-12T13:26:21.916Z,13.79
2019-01-12T13:32:16.917Z,9.77
2019-01-12T13:38:11.935Z,14.34
2019-01-12T13:44:06.937Z,15.56
2019-01-12T13:50:02.007Z,37.91
2019-01-12T13:55:56.941Z,13.75
2019-01-12T14:01:51.937Z,21.71
2019-01-12T14:07:46.977Z,17.26
2019-01-12T14:13:42.441Z,15.53
2019-01-12T14:19:36.986Z,19.06
2019-01-12T14:25:31.931Z,18.01
2019-01-12T14:31:26.963Z,16.31
2019-01-12T14:37:21.959Z,20.83
2019-01-12T14:43:17.014Z,20.31
2019-01-12T14:49:12.018Z,26.22
2019-01-12T14:55:06.986Z,21.05
2019-01-12T15:01:01.946Z,16.96
2019-01-12T15:06:56.960Z,18.77
2019-01-12T15:12:51.991Z,21.16
2019-01-12T15:18:46.976Z,16.03
2019-01-12T15:24:41.965Z,19.82
2019-01-12T15:30:37.036Z,21.3
2019-01-12T15:36:31.993Z,32.3
2019-01-12T15:42:27.033Z,125.5
2019-01-12T15:48:22.087Z,138.58
2019-01-12T15:54:16.989Z,72.74
2019-01-12T16:00:12.008Z,87.25
2019-01-12T16:06:07.010Z,42.78
2019-01-12T16:12:02.001Z,24.33
2019-01-12T16:17:57.050Z,30.05
2019-01-12T16:23:52.041Z,23.1
2019-01-12T16:29:47.007Z,34.8
2019-01-12T16:35:42.012Z,26.14
2019-01-12T16:41:37.002Z,27.14
2019-01-12T16:47:32.017Z,19.91
2019-01-12T16:53:27.044Z,21.05
2019-01-12T16:59:22.118Z,17.02
2019-01-12T17:05:17.036Z,18.05
2019-01-12T17:11:12.029Z,24.97
2019-01-12T17:17:07.043Z,20.55
2019-01-12T17:23:02.081Z,19.43
2019-01-12T17:28:57.026Z,17.19
2019-01-12T17:34:52.048Z,72.43
2019-01-12T17:40:47.098Z,30.67
2019-01-12T17:46:42.062Z,55.5
2019-01-12T17:52:37.060Z,23.05
2019-01-12T17:58:32.109Z,19.35
2019-01-12T18:04:27.065Z,31.29
2019-01-12T18:10:22.068Z,15.07
2019-01-12T18:16:17.069Z,14.56
2019-01-12T18:22:12.100Z,18.51
2019-01-12T18:28:07.089Z,19.19
2019-01-12T18:34:02.072Z,23.12
2019-01-12T18:39:57.072Z,16.55
2019-01-12T18:45:52.102Z,13.77
2019-01-12T18:51:47.076Z,9.81
2019-01-12T18:57:42.126Z,21.17
2019-01-12T19:03:37.101Z,17.39
2019-01-12T19:09:32.103Z,35.69
2019-01-12T19:15:27.128Z,27.46
2019-01-12T19:21:22.140Z,30.01
2019-01-12T19:27:17.104Z,21.07
2019-01-12T19:33:12.107Z,16.4
2019-01-12T19:39:07.127Z,18.2
2019-01-12T19:45:02.082Z,14.84
2019-01-12T19:50:57.146Z,21.12
2019-01-12T19:56:52.135Z,15.42
2019-01-12T20:02:47.123Z,27.04
2019-01-12T20:08:42.174Z,21.57
2019-01-12T20:14:37.107Z,31.9
2019-01-12T20:20:32.146Z,25.07
2019-01-12T20:26:27.130Z,28.98
2019-01-12T20:32:22.124Z,23.45
2019-01-12T20:44:12.135Z,34.38
2019-01-12T20:44:12.186Z,30.5
2019-01-12T20:50:07.138Z,29.67
2019-01-12T20:56:02.150Z,33.9
2019-01-12T21:01:57.164Z,32.61
2019-01-12T21:07:52.155Z,38.46
2019-01-12T21:13:48.277Z,37.77
2019-01-12T21:19:47.923Z,36.17
2019-01-12T21:25:37.143Z,27.86
2019-01-12T21:31:32.177Z,30.67
2019-01-12T21:37:27.164Z,26.47
2019-01-12T21:43:22.212Z,24.92
2019-01-12T21:49:17.178Z,29.44
2019-01-12T21:55:12.178Z,28.68
2019-01-12T22:01:07.255Z,25
2019-01-12T22:07:02.191Z,28.52
2019-01-12T22:12:57.177Z,24.58
2019-01-12T22:18:52.231Z,26.37
2019-01-12T22:24:47.164Z,30.39
2019-01-12T22:30:42.186Z,29.19
2019-01-12T22:36:37.190Z,27.55
2019-01-12T22:42:32.187Z,23.4
2019-01-12T22:48:27.195Z,22.78
2019-01-12T22:54:22.221Z,27.56
2019-01-12T23:00:17.210Z,27.82
2019-01-12T23:06:12.214Z,34.9
2019-01-12T23:12:07.182Z,34.22
2019-01-12T23:18:02.231Z,30.48
2019-01-12T23:23:57.213Z,46.1
2019-01-12T23:29:52.205Z,32.29
2019-01-12T23:35:47.214Z,34.17
2019-01-12T23:41:42.249Z,43.4
2019-01-12T23:47:37.266Z,47.16
2019-01-12T23:53:32.216Z,38.88
2019-01-12T23:59:27.215Z,42.75
